Time;durP1;ratioP1;P1;durP2;ratioP2;P2;SDS_P1;SDS_P2;PMS_P1;PMS_P2;Temp;Humidity;BMP_temperature;BMP_pressure;BME280_temperature;BME280_humidity;BME280_pressure;Samples;Min_cycle;Max_cycle;Signal;HPM_P1;HPM_P2
2023/07/08 00:00:31;;;;;;;;;;;;;;;;;;5049984;28;19921;-73
2023/07/08 00:02:57;;;;;;;;;;;;;;;;;;5061390;28;19983;-74
2023/07/08 00:05:23;;;;;;;;;;;;;;;;;;5049896;28;19928;-73
2023/07/08 00:07:49;;;;;;;;;;;;;;;;;;5050084;28;19925;-73
2023/07/08 00:10:15;;;;;;;;;;;;;;;;;;5048918;28;19967;-72
2023/07/08 00:12:41;;;;;;;;;;;;;;;;;;5049810;28;19921;-72
2023/07/08 00:15:07;;;;;;;;;;;;;;;;;;5049684;28;19939;-77
2023/07/08 00:17:33;;;;;;;;;;;;;;;;;;5066421;28;19920;-73
2023/07/08 00:19:59;;;;;;;;;;;;;;;;;;5069674;28;19920;-72
2023/07/08 00:22:25;;;;;;;;;;;;;;;;;;5049664;28;19927;-72
2023/07/08 00:24:51;;;;;;;;;;;;;;;;;;5049721;28;19920;-72
2023/07/08 00:27:17;;;;;;;;;;;;;;;;;;5053654;28;20023;-73
2023/07/08 00:29:43;;;;;;;;;;;;;;;;;;5069928;28;20014;-72
2023/07/08 00:32:09;;;;;;;;;;;;;;;;;;5069523;28;19928;-77
2023/07/08 00:34:35;;;;;;;;;;;;;;;;;;5049101;28;19921;-73
2023/07/08 00:37:04;;;;;;;;;;;;;;;;;;5050213;28;20016;-73
2023/07/08 00:39:30;;;;;;;;;;;;;;;;;;5054691;28;19932;-72
2023/07/08 00:41:57;;;;;;;;;;;;;;;;;;5078121;28;19920;-72
2023/07/08 00:44:23;;;;;;;;;;;;;;;;;;5070359;28;19924;-72
2023/07/08 00:46:49;;;;;;;;;;;;;;;;;;5070066;28;19931;-72
2023/07/08 00:49:15;;;;;;;;;;;;;;;;;;5056769;28;19931;-72
2023/07/08 00:51:41;;;;;;;;;;;;;;;;;;5049919;28;20379;-72
2023/07/08 00:54:07;;;;;;;;;;;;;;;;;;5049825;28;20386;-73
2023/07/08 00:56:33;;;;;;;;;;;;;;;;;;5048975;28;19931;-72
2023/07/08 00:58:59;;;;;;;;;;;;;;;;;;5066294;28;19925;-72
2023/07/08 01:01:25;;;;;;;;;;;;;;;;;;5052619;28;19949;-72
2023/07/08 01:03:51;;;;;;;;;;;;;;;;;;5069131;28;20373;-72
2023/07/08 01:06:17;;;;;;;;;;;;;;;;;;5069013;28;20384;-72
2023/07/08 01:08:43;;;;;;;;;;;;;;;;;;5053775;28;20309;-73
2023/07/08 01:11:09;;;;;;;;;;;;;;;;;;5048869;28;19925;-73
2023/07/08 01:13:35;;;;;;;;;;;;;;;;;;5048718;28;19992;-72
2023/07/08 01:16:01;;;;;;;;;;;;;;;;;;5049724;28;20014;-72
2023/07/08 01:18:27;;;;;;;;;;;;;;;;;;5048805;28;19971;-72
2023/07/08 01:20:55;;;;;;;;;;;;;;;;;;5033192;28;19924;-73
2023/07/08 01:23:21;;;;;;;;;;;;;;;;;;5049126;28;19975;-73
2023/07/08 01:25:47;;;;;;;;;;;;;;;;;;5048882;28;19929;-72
2023/07/08 01:28:13;;;;;;;;;;;;;;;;;;5048796;28;19924;-77
2023/07/08 01:30:39;;;;;;;;;;;;;;;;;;5052185;28;19921;-72
2023/07/08 01:33:05;;;;;;;;;;;;;;;;;;5046091;28;20362;-72
2023/07/08 01:35:30;;;;;;;;;;;;;;;;;;5072570;28;20388;-72
2023/07/08 01:37:57;;;;;;;;;;;;;;;;;;5056096;28;20328;-72
2023/07/08 01:40:23;;;;;;;;;;;;;;;;;;5071927;28;19943;-72
2023/07/08 01:42:49;;;;;;;;;;;;;;;;;;5072592;28;20408;-72
2023/07/08 01:45:14;;;;;;;;;;;;;;;;;;5072893;28;19921;-78
2023/07/08 01:47:40;;;;;;;;;;;;;;;;;;5058360;28;19982;-73
2023/07/08 01:50:06;;;;;;;;;;;;;;;;;;5052676;28;19967;-73
2023/07/08 01:52:32;;;;;;;;;;;;;;;;;;5053833;28;19921;-73
2023/07/08 01:54:58;;;;;;;;;;;;;;;;;;5071712;28;19920;-73
2023/07/08 01:57:24;;;;;;;;;;;;;;;;;;5055489;28;19988;-72
2023/07/08 01:59:50;;;;;;;;;;;;;;;;;;5052205;28;19986;-72
2023/07/08 02:02:16;;;;;;;;;;;;;;;;;;5053275;28;19928;-76
2023/07/08 02:04:42;;;;;;;;;;;;;;;;;;5071374;28;20021;-73
2023/07/08 02:07:08;;;;;;;;;;;;;;;;;;5052459;28;19920;-72
2023/07/08 02:09:34;;;;;;;;;;;;;;;;;;5034782;28;19927;-73
2023/07/08 02:12:00;;;;;;;;;;;;;;;;;;5036024;28;19924;-72
2023/07/08 02:14:26;;;;;;;;;;;;;;;;;;5066300;28;19990;-73
2023/07/08 02:16:52;;;;;;;;;;;;;;;;;;5052131;28;20262;-73
2023/07/08 02:19:19;;;;;;;;;;;;;;;;;;5050484;28;19928;-77
2023/07/08 02:21:45;;;;;;;;;;;;;;;;;;5045555;28;19924;-72
2023/07/08 02:24:11;;;;;;;;;;;;;;;;;;5055221;28;19930;-72
2023/07/08 02:26:37;;;;;;;;;;;;;;;;;;5069887;28;19924;-72
2023/07/08 02:29:03;;;;;;;;;;;;;;;;;;5063627;28;19924;-73
2023/07/08 02:31:28;;;;;;;;;;;;;;;;;;5071759;28;19924;-72
2023/07/08 02:33:54;;;;;;;;;;;;;;;;;;5052599;28;20384;-72
2023/07/08 02:36:20;;;;;;;;;;;;;;;;;;5051723;28;19976;-76
2023/07/08 02:38:46;;;;;;;;;;;;;;;;;;5051727;28;19947;-72
2023/07/08 02:41:12;;;;;;;;;;;;;;;;;;5051518;28;19968;-73
2023/07/08 02:43:38;;;;;;;;;;;;;;;;;;5056057;28;19920;-73
2023/07/08 02:46:04;;;;;;;;;;;;;;;;;;5071843;28;19977;-72
2023/07/08 02:48:30;;;;;;;;;;;;;;;;;;5070057;28;20387;-72
2023/07/08 02:50:56;;;;;;;;;;;;;;;;;;5071638;28;20361;-73
2023/07/08 02:53:22;;;;;;;;;;;;;;;;;;5060003;28;20319;-77
2023/07/08 02:55:48;;;;;;;;;;;;;;;;;;5051194;28;19920;-72
2023/07/08 02:58:14;;;;;;;;;;;;;;;;;;5079763;28;19927;-72
2023/07/08 03:00:40;;;;;;;;;;;;;;;;;;5070420;28;19935;-72
2023/07/08 03:03:06;;;;;;;;;;;;;;;;;;5070482;28;19947;-72
2023/07/08 03:05:32;;;;;;;;;;;;;;;;;;5070816;28;19924;-72
2023/07/08 03:07:58;;;;;;;;;;;;;;;;;;5054458;28;20399;-72
2023/07/08 03:10:24;;;;;;;;;;;;;;;;;;5070345;28;20373;-77
2023/07/08 03:12:50;;;;;;;;;;;;;;;;;;5070648;28;19931;-72
2023/07/08 03:15:16;;;;;;;;;;;;;;;;;;5071266;28;19971;-72
2023/07/08 03:17:43;;;;;;;;;;;;;;;;;;5065389;28;20116;-73
2023/07/08 03:20:10;;;;;;;;;;;;;;;;;;5051073;28;19920;-72
2023/07/08 03:22:36;;;;;;;;;;;;;;;;;;5057534;28;19921;-73
2023/07/08 03:25:02;;;;;;;;;;;;;;;;;;5070596;28;20014;-74
2023/07/08 03:27:28;;;;;;;;;;;;;;;;;;5070305;28;20041;-74
2023/07/08 03:29:54;;;;;;;;;;;;;;;;;;5053927;28;20389;-72
2023/07/08 03:32:20;;;;;;;;;;;;;;;;;;5071066;28;19971;-73
2023/07/08 03:34:45;;;;;;;;;;;;;;;;;;5052858;28;20175;-72
2023/07/08 03:37:11;;;;;;;;;;;;;;;;;;5054216;28;19920;-73
2023/07/08 03:39:37;;;;;;;;;;;;;;;;;;5067751;28;19939;-74
2023/07/08 03:42:03;;;;;;;;;;;;;;;;;;5054214;28;19921;-75
2023/07/08 03:44:30;;;;;;;;;;;;;;;;;;5051708;28;19920;-73
2023/07/08 03:46:56;;;;;;;;;;;;;;;;;;5050492;28;19927;-72
2023/07/08 03:49:22;;;;;;;;;;;;;;;;;;5049500;28;19924;-73
2023/07/08 03:51:48;;;;;;;;;;;;;;;;;;5063330;28;20240;-72
2023/07/08 03:54:13;;;;;;;;;;;;;;;;;;5070498;28;20408;-73
2023/07/08 03:56:39;;;;;;;;;;;;;;;;;;5052907;28;20341;-73
2023/07/08 03:59:05;;;;;;;;;;;;;;;;;;5070227;28;19924;-73
2023/07/08 04:01:31;;;;;;;;;;;;;;;;;;5066730;28;20054;-74
2023/07/08 04:03:57;;;;;;;;;;;;;;;;;;5062210;28;19936;-73
2023/07/08 04:06:23;;;;;;;;;;;;;;;;;;5070006;28;19925;-73
2023/07/08 04:08:49;;;;;;;;;;;;;;;;;;5052733;28;19974;-72
2023/07/08 04:11:15;;;;;;;;;;;;;;;;;;5070030;28;19960;-74
2023/07/08 04:13:41;;;;;;;;;;;;;;;;;;5069108;28;19921;-74
2023/07/08 04:16:08;;;;;;;;;;;;;;;;;;5071198;28;19924;-75
2023/07/08 04:18:36;;;;;;;;;;;;;;;;;;5051827;28;19920;-74
2023/07/08 04:21:02;;;;;;;;;;;;;;;;;;5064129;28;19927;-74
2023/07/08 04:23:28;;;;;;;;;;;;;;;;;;5050289;28;19976;-74
2023/07/08 04:25:54;;;;;;;;;;;;;;;;;;5049568;28;19970;-75
2023/07/08 04:28:20;;;;;;;;;;;;;;;;;;5050221;28;20297;-74
2023/07/08 04:30:46;;;;;;;;;;;;;;;;;;5053009;28;19921;-74
2023/07/08 04:33:12;;;;;;;;;;;;;;;;;;5060853;28;20062;-74
2023/07/08 04:35:38;;;;;;;;;;;;;;;;;;5049579;28;19924;-74
2023/07/08 04:38:09;;;;;;;;;;;;;;;;;;5050044;28;19924;-74
2023/07/08 04:40:36;;;;;;;;;;;;;;;;;;5049000;28;19967;-73
2023/07/08 04:43:03;;;;;;;;;;;;;;;;;;5049732;28;20546;-74
2023/07/08 04:45:28;;;;;;;;;;;;;;;;;;5051462;28;19924;-76
2023/07/08 04:47:54;;;;;;;;;;;;;;;;;;5067935;28;19931;-74
2023/07/08 04:50:20;;;;;;;;;;;;;;;;;;5049889;28;19921;-74
2023/07/08 04:52:46;;;;;;;;;;;;;;;;;;5049495;28;19928;-74
2023/07/08 04:55:13;;;;;;;;;;;;;;;;;;5051079;28;20346;-74
2023/07/08 04:57:39;;;;;;;;;;;;;;;;;;5069245;28;19921;-74
2023/07/08 05:00:07;;;;;;;;;;;;;;;;;;5069839;28;19921;-73
2023/07/08 05:02:33;;;;;;;;;;;;;;;;;;5048875;28;19920;-78
2023/07/08 05:04:59;;;;;;;;;;;;;;;;;;5050132;28;20015;-73
2023/07/08 05:07:25;;;;;;;;;;;;;;;;;;5053510;28;20057;-74
2023/07/08 05:09:51;;;;;;;;;;;;;;;;;;5055162;28;19920;-74
2023/07/08 05:12:17;;;;;;;;;;;;;;;;;;5073021;28;20559;-73
2023/07/08 05:14:43;;;;;;;;;;;;;;;;;;5072698;28;19924;-73
2023/07/08 05:17:09;;;;;;;;;;;;;;;;;;5062146;28;19926;-74
2023/07/08 05:19:35;;;;;;;;;;;;;;;;;;5051687;28;20381;-78
2023/07/08 05:22:02;;;;;;;;;;;;;;;;;;5068623;28;20353;-74
2023/07/08 05:24:28;;;;;;;;;;;;;;;;;;5072818;28;19946;-75
2023/07/08 05:26:54;;;;;;;;;;;;;;;;;;5072585;28;20035;-74
2023/07/08 05:29:20;;;;;;;;;;;;;;;;;;5070390;28;19930;-74
2023/07/08 05:31:46;;;;;;;;;;;;;;;;;;5072837;28;19966;-73
2023/07/08 05:34:11;;;;;;;;;;;;;;;;;;5055855;28;20357;-73
2023/07/08 05:36:38;;;;;;;;;;;;;;;;;;5052601;28;19924;-74
2023/07/08 05:39:05;;;;;;;;;;;;;;;;;;5054099;28;20014;-74
2023/07/08 05:41:31;;;;;;;;;;;;;;;;;;5072337;28;19920;-73
2023/07/08 05:43:57;;;;;;;;;;;;;;;;;;5072309;28;20576;-73
2023/07/08 05:46:23;;;;;;;;;;;;;;;;;;5073056;28;19935;-73
2023/07/08 05:48:50;;;;;;;;;;;;;;;;;;5057860;28;20327;-74
2023/07/08 05:51:16;;;;;;;;;;;;;;;;;;5052814;28;19973;-75
2023/07/08 05:53:42;;;;;;;;;;;;;;;;;;5069219;28;19920;-73
2023/07/08 05:56:08;;;;;;;;;;;;;;;;;;5072144;28;19920;-74
2023/07/08 05:58:34;;;;;;;;;;;;;;;;;;5070946;28;19920;-73
2023/07/08 06:01:00;;;;;;;;;;;;;;;;;;5071740;28;19924;-73
2023/07/08 06:03:26;;;;;;;;;;;;;;;;;;5051877;28;19921;-73
2023/07/08 06:05:52;;;;;;;;;;;;;;;;;;5052158;28;19924;-73
2023/07/08 06:08:18;;;;;;;;;;;;;;;;;;5052280;28;19931;-74
2023/07/08 06:10:44;;;;;;;;;;;;;;;;;;5052471;28;19927;-74
2023/07/08 06:13:10;;;;;;;;;;;;;;;;;;5052037;28;19920;-73
2023/07/08 06:15:36;;;;;;;;;;;;;;;;;;5050272;28;19971;-73
2023/07/08 06:18:03;;;;;;;;;;;;;;;;;;5053527;28;19930;-75
2023/07/08 06:20:29;;;;;;;;;;;;;;;;;;5072426;28;19973;-74
2023/07/08 06:22:55;;;;;;;;;;;;;;;;;;5055046;28;19928;-73
2023/07/08 06:25:21;;;;;;;;;;;;;;;;;;5071551;28;19925;-74
2023/07/08 06:27:47;;;;;;;;;;;;;;;;;;5070371;28;19924;-69
2023/07/08 06:30:13;;;;;;;;;;;;;;;;;;5073102;28;19951;-69
2023/07/08 06:32:39;;;;;;;;;;;;;;;;;;5072354;28;19947;-75
2023/07/08 06:35:05;;;;;;;;;;;;;;;;;;5072716;28;19977;-69
2023/07/08 06:37:30;;;;;;;;;;;;;;;;;;5070851;28;19924;-69
2023/07/08 06:39:56;;;;;;;;;;;;;;;;;;5058371;28;19925;-70
2023/07/08 06:42:22;;;;;;;;;;;;;;;;;;5052882;28;19931;-72
2023/07/08 06:44:50;;;;;;;;;;;;;;;;;;5054900;28;19977;-71
2023/07/08 06:47:16;;;;;;;;;;;;;;;;;;5055966;28;19928;-74
2023/07/08 06:49:43;;;;;;;;;;;;;;;;;;5068450;28;20384;-78
2023/07/08 06:52:08;;;;;;;;;;;;;;;;;;5071780;28;19977;-72
2023/07/08 06:54:34;;;;;;;;;;;;;;;;;;5051791;28;19920;-72
2023/07/08 06:57:00;;;;;;;;;;;;;;;;;;5069896;28;19920;-72
2023/07/08 06:59:28;;;;;;;;;;;;;;;;;;5070196;28;19920;-72
2023/07/08 07:01:54;;;;;;;;;;;;;;;;;;5068317;28;19924;-73
2023/07/08 07:04:20;;;;;;;;;;;;;;;;;;5070516;28;19931;-73
2023/07/08 07:06:46;;;;;;;;;;;;;;;;;;5069740;28;20311;-73
2023/07/08 07:09:12;;;;;;;;;;;;;;;;;;5053292;28;19924;-73
2023/07/08 07:11:38;;;;;;;;;;;;;;;;;;5070689;28;19954;-73
2023/07/08 07:14:04;;;;;;;;;;;;;;;;;;5068785;28;19927;-75
2023/07/08 07:16:30;;;;;;;;;;;;;;;;;;5070247;28;19924;-74
2023/07/08 07:18:56;;;;;;;;;;;;;;;;;;5068755;28;20401;-73
2023/07/08 07:21:21;;;;;;;;;;;;;;;;;;5070993;28;20373;-73
2023/07/08 07:23:47;;;;;;;;;;;;;;;;;;5045475;28;19944;-74
2023/07/08 07:26:14;;;;;;;;;;;;;;;;;;5033794;28;19980;-74
2023/07/08 07:28:40;;;;;;;;;;;;;;;;;;5049582;28;20280;-73
2023/07/08 07:31:07;;;;;;;;;;;;;;;;;;5051722;28;19917;-74
2023/07/08 07:33:33;;;;;;;;;;;;;;;;;;5054936;28;19927;-74
2023/07/08 07:35:58;;;;;;;;;;;;;;;;;;5070459;28;19920;-74
2023/07/08 07:38:28;;;;;;;;;;;;;;;;;;5053963;28;19920;-75
2023/07/08 07:40:54;;;;;;;;;;;;;;;;;;5053070;28;19927;-74
2023/07/08 07:43:20;;;;;;;;;;;;;;;;;;5070481;28;19920;-73
2023/07/08 07:45:46;;;;;;;;;;;;;;;;;;5053110;28;19920;-78
2023/07/08 07:48:12;;;;;;;;;;;;;;;;;;5069995;28;19920;-74
2023/07/08 07:50:38;;;;;;;;;;;;;;;;;;5070136;28;19924;-74
2023/07/08 07:53:04;;;;;;;;;;;;;;;;;;5069752;28;19932;-74
2023/07/08 07:55:30;;;;;;;;;;;;;;;;;;5069347;28;19927;-73
2023/07/08 07:57:56;;;;;;;;;;;;;;;;;;5049738;28;19924;-73
2023/07/08 08:00:22;;;;;;;;;;;;;;;;;;5050710;28;19921;-73
2023/07/08 08:02:48;;;;;;;;;;;;;;;;;;5049284;28;19925;-79
2023/07/08 08:05:14;;;;;;;;;;;;;;;;;;5056337;28;19925;-74
2023/07/08 08:07:40;;;;;;;;;;;;;;;;;;5069968;28;20311;-73
2023/07/08 08:10:07;;;;;;;;;;;;;;;;;;5069447;28;19920;-73
2023/07/08 08:12:33;;;;;;;;;;;;;;;;;;5069860;28;19974;-70
2023/07/08 08:14:59;;;;;;;;;;;;;;;;;;5070448;28;19925;-71
2023/07/08 08:17:24;;;;;;;;;;;;;;;;;;5070461;28;19924;-71
2023/07/08 08:19:50;;;;;;;;;;;;;;;;;;5068538;28;19962;-73
2023/07/08 08:22:16;;;;;;;;;;;;;;;;;;5071391;28;19940;-72
2023/07/08 08:24:42;;;;;;;;;;;;;;;;;;5070674;28;20361;-72
2023/07/08 08:27:08;;;;;;;;;;;;;;;;;;5067329;28;19921;-68
2023/07/08 08:29:34;;;;;;;;;;;;;;;;;;5053711;28;19932;-68
2023/07/08 08:32:00;;;;;;;;;;;;;;;;;;5050475;28;19974;-69
2023/07/08 08:34:26;;;;;;;;;;;;;;;;;;5049719;28;19920;-84
2023/07/08 08:36:55;;;;;;;;;;;;;;;;;;5049884;28;19927;-78
2023/07/08 08:39:21;;;;;;;;;;;;;;;;;;5058063;28;19927;-73
2023/07/08 08:41:47;;;;;;;;;;;;;;;;;;5073725;28;19936;-73
2023/07/08 08:44:13;;;;;;;;;;;;;;;;;;5056328;28;19931;-73
2023/07/08 08:46:39;;;;;;;;;;;;;;;;;;5070920;28;19966;-73
2023/07/08 08:49:05;;;;;;;;;;;;;;;;;;5055577;28;19920;-73
2023/07/08 08:51:31;;;;;;;;;;;;;;;;;;5071722;28;20456;-73
2023/07/08 08:53:57;;;;;;;;;;;;;;;;;;5053437;28;20313;-74
2023/07/08 08:56:23;;;;;;;;;;;;;;;;;;5053470;28;19921;-74
2023/07/08 08:58:48;;;;;;;;;;;;;;;;;;5053684;28;19928;-74
2023/07/08 09:01:14;;;;;;;;;;;;;;;;;;5053157;28;19950;-74
2023/07/08 09:03:40;;;;;;;;;;;;;;;;;;5063696;28;19921;-74
2023/07/08 09:06:06;;;;;;;;;;;;;;;;;;5073293;28;19920;-74
2023/07/08 09:08:34;;;;;;;;;;;;;;;;;;5070120;28;19920;-75
2023/07/08 09:11:00;;;;;;;;;;;;;;;;;;5053938;28;20001;-75
2023/07/08 09:13:26;;;;;;;;;;;;;;;;;;5053243;28;19920;-75
2023/07/08 09:15:52;;;;;;;;;;;;;;;;;;5054451;28;19951;-74
2023/07/08 09:18:18;;;;;;;;;;;;;;;;;;5051717;28;20010;-73
2023/07/08 09:20:44;;;;;;;;;;;;;;;;;;5056006;28;19928;-74
2023/07/08 09:23:10;;;;;;;;;;;;;;;;;;5072646;28;19920;-72
2023/07/08 09:25:36;;;;;;;;;;;;;;;;;;5072879;28;19970;-72
2023/07/08 09:28:02;;;;;;;;;;;;;;;;;;5071112;28;19928;-72
2023/07/08 09:30:31;;;;;;;;;;;;;;;;;;5074127;28;20365;-73
2023/07/08 09:32:57;;;;;;;;;;;;;;;;;;5055318;28;19924;-79
2023/07/08 09:35:23;;;;;;;;;;;;;;;;;;5056613;28;19920;-75
2023/07/08 09:37:49;;;;;;;;;;;;;;;;;;5073152;28;19927;-75
2023/07/08 09:40:15;;;;;;;;;;;;;;;;;;5071942;28;19928;-75
2023/07/08 09:42:41;;;;;;;;;;;;;;;;;;5073043;28;19926;-75
2023/07/08 09:45:09;;;;;;;;;;;;;;;;;;5055530;28;19924;-75
2023/07/08 09:47:35;;;;;;;;;;;;;;;;;;5055340;28;19920;-72
2023/07/08 09:50:01;;;;;;;;;;;;;;;;;;5072265;28;19990;-71
2023/07/08 09:52:27;;;;;;;;;;;;;;;;;;5072415;28;19964;-71
2023/07/08 09:54:53;;;;;;;;;;;;;;;;;;5073370;28;19932;-71
2023/07/08 09:57:19;;;;;;;;;;;;;;;;;;5072184;28;19943;-71
2023/07/08 09:59:45;;;;;;;;;;;;;;;;;;5073492;28;20062;-72
2023/07/08 10:02:11;;;;;;;;;;;;;;;;;;5064027;28;19978;-71
2023/07/08 10:04:37;;;;;;;;;;;;;;;;;;5052735;28;19932;-71
2023/07/08 10:07:03;;;;;;;;;;;;;;;;;;5053252;28;19924;-71
2023/07/08 10:09:29;;;;;;;;;;;;;;;;;;5052203;28;19931;-72
2023/07/08 10:11:55;;;;;;;;;;;;;;;;;;5059732;28;20426;-73
2023/07/08 10:14:21;;;;;;;;;;;;;;;;;;5068143;28;19925;-73
2023/07/08 10:16:47;;;;;;;;;;;;;;;;;;5052437;28;19963;-72
2023/07/08 10:19:13;;;;;;;;;;;;;;;;;;5051576;28;19928;-72
2023/07/08 10:21:39;;;;;;;;;;;;;;;;;;5055726;28;19924;-72
2023/07/08 10:24:05;;;;;;;;;;;;;;;;;;5072485;28;20358;-68
2023/07/08 10:26:31;;;;;;;;;;;;;;;;;;5071360;28;19929;-72
2023/07/08 10:28:57;;;;;;;;;;;;;;;;;;5072073;28;19924;-72
2023/07/08 10:31:23;;;;;;;;;;;;;;;;;;5070592;28;20404;-73
2023/07/08 10:33:49;;;;;;;;;;;;;;;;;;5065734;28;20337;-72
2023/07/08 10:36:14;;;;;;;;;;;;;;;;;;5056979;28;19993;-72
2023/07/08 10:38:40;;;;;;;;;;;;;;;;;;5051908;28;19929;-84
2023/07/08 10:41:06;;;;;;;;;;;;;;;;;;5060214;28;20019;-72
2023/07/08 10:43:32;;;;;;;;;;;;;;;;;;5071443;28;19924;-72
2023/07/08 10:45:58;;;;;;;;;;;;;;;;;;5071853;28;20471;-72
2023/07/08 10:48:24;;;;;;;;;;;;;;;;;;5069677;28;20007;-72
2023/07/08 10:50:50;;;;;;;;;;;;;;;;;;5054952;28;19931;-71
2023/07/08 10:53:16;;;;;;;;;;;;;;;;;;5070385;28;19924;-72
2023/07/08 10:55:42;;;;;;;;;;;;;;;;;;5069894;28;19924;-70
2023/07/08 10:58:10;;;;;;;;;;;;;;;;;;5066865;28;19928;-70
2023/07/08 11:00:36;;;;;;;;;;;;;;;;;;5051627;28;20404;-70
2023/07/08 11:03:02;;;;;;;;;;;;;;;;;;5051752;28;20016;-72
2023/07/08 11:05:28;;;;;;;;;;;;;;;;;;5052103;28;20025;-71
2023/07/08 11:07:54;;;;;;;;;;;;;;;;;;5065524;28;19921;-83
2023/07/08 11:10:20;;;;;;;;;;;;;;;;;;5060076;28;19920;-78
2023/07/08 11:12:46;;;;;;;;;;;;;;;;;;5052030;28;20380;-70
2023/07/08 11:15:12;;;;;;;;;;;;;;;;;;5051815;28;19927;-71
2023/07/08 11:17:38;;;;;;;;;;;;;;;;;;5051586;28;19924;-73
2023/07/08 11:20:04;;;;;;;;;;;;;;;;;;5051928;28;19971;-74
2023/07/08 11:22:30;;;;;;;;;;;;;;;;;;5066046;28;19920;-75
2023/07/08 11:24:56;;;;;;;;;;;;;;;;;;5053490;28;19926;-77
2023/07/08 11:27:26;;;;;;;;;;;;;;;;;;5065750;28;19928;-77
2023/07/08 11:29:52;;;;;;;;;;;;;;;;;;5067369;28;19921;-77
2023/07/08 11:32:18;;;;;;;;;;;;;;;;;;5052937;28;20384;-77
2023/07/08 11:34:44;;;;;;;;;;;;;;;;;;5052172;28;20280;-78
2023/07/08 11:37:10;;;;;;;;;;;;;;;;;;5069060;28;19973;-78
2023/07/08 11:39:36;;;;;;;;;;;;;;;;;;5067762;28;19925;-78
2023/07/08 11:42:01;;;;;;;;;;;;;;;;;;5069395;28;19955;-79
2023/07/08 11:44:27;;;;;;;;;;;;;;;;;;5069389;28;20526;-76
2023/07/08 11:46:54;;;;;;;;;;;;;;;;;;5070703;28;19920;-76
2023/07/08 11:49:19;;;;;;;;;;;;;;;;;;5068570;28;19920;-76
2023/07/08 11:51:45;;;;;;;;;;;;;;;;;;5050377;28;19939;-76
2023/07/08 11:54:11;;;;;;;;;;;;;;;;;;5057028;28;19920;-77
2023/07/08 11:56:37;;;;;;;;;;;;;;;;;;5053481;28;19924;-77
2023/07/08 11:59:04;;;;;;;;;;;;;;;;;;5069791;28;19920;-77
2023/07/08 12:01:30;;;;;;;;;;;;;;;;;;5064390;28;20566;-77
2023/07/08 12:03:56;;;;;;;;;;;;;;;;;;5049668;28;19925;-77
2023/07/08 12:06:21;;;;;;;;;;;;;;;;;;5056534;28;20005;-77
2023/07/08 12:08:47;;;;;;;;;;;;;;;;;;5053442;28;20380;-77
2023/07/08 12:11:13;;;;;;;;;;;;;;;;;;5052913;28;20560;-77
2023/07/08 12:13:39;;;;;;;;;;;;;;;;;;5069701;28;19921;-77
2023/07/08 12:16:05;;;;;;;;;;;;;;;;;;5063031;28;19927;-77
2023/07/08 12:18:31;;;;;;;;;;;;;;;;;;5048497;28;19921;-77
2023/07/08 12:20:57;;;;;;;;;;;;;;;;;;5049449;28;19928;-76
2023/07/08 12:23:23;;;;;;;;;;;;;;;;;;5063286;28;19926;-77
2023/07/08 12:25:49;;;;;;;;;;;;;;;;;;5069888;28;19920;-77
2023/07/08 12:28:15;;;;;;;;;;;;;;;;;;5049220;28;19971;-77
2023/07/08 12:30:41;;;;;;;;;;;;;;;;;;5036806;28;19924;-77
2023/07/08 12:33:07;;;;;;;;;;;;;;;;;;5049285;28;19920;-76
2023/07/08 12:35:33;;;;;;;;;;;;;;;;;;5033288;28;19921;-77
2023/07/08 12:38:00;;;;;;;;;;;;;;;;;;5050238;28;20442;-77
2023/07/08 12:40:25;;;;;;;;;;;;;;;;;;5032629;28;19924;-76
2023/07/08 12:42:52;;;;;;;;;;;;;;;;;;5034574;28;19932;-76
2023/07/08 12:45:18;;;;;;;;;;;;;;;;;;5068562;28;20342;-76
2023/07/08 12:47:44;;;;;;;;;;;;;;;;;;5069127;28;19924;-77
2023/07/08 12:50:10;;;;;;;;;;;;;;;;;;5070084;28;20110;-76
2023/07/08 12:52:36;;;;;;;;;;;;;;;;;;5065147;28;20064;-76
2023/07/08 12:55:02;;;;;;;;;;;;;;;;;;5052705;28;19932;-76
2023/07/08 12:57:28;;;;;;;;;;;;;;;;;;5067093;28;19935;-77
2023/07/08 12:59:54;;;;;;;;;;;;;;;;;;5049900;28;19971;-76
2023/07/08 13:02:19;;;;;;;;;;;;;;;;;;5049529;28;19954;-76
2023/07/08 13:04:45;;;;;;;;;;;;;;;;;;5061832;28;19924;-76
2023/07/08 13:07:11;;;;;;;;;;;;;;;;;;5056585;28;20011;-76
2023/07/08 13:09:37;;;;;;;;;;;;;;;;;;5057669;28;20601;-76
2023/07/08 13:12:03;;;;;;;;;;;;;;;;;;5053271;28;19925;-76
2023/07/08 13:14:29;;;;;;;;;;;;;;;;;;5069073;28;19924;-76
2023/07/08 13:16:55;;;;;;;;;;;;;;;;;;5069986;28;19924;-76
2023/07/08 13:19:21;;;;;;;;;;;;;;;;;;5051411;28;20012;-76
2023/07/08 13:21:47;;;;;;;;;;;;;;;;;;5053096;28;20262;-76
2023/07/08 13:24:13;;;;;;;;;;;;;;;;;;5052735;28;19935;-76
2023/07/08 13:26:39;;;;;;;;;;;;;;;;;;5071270;28;19931;-76
2023/07/08 13:29:05;;;;;;;;;;;;;;;;;;5072657;28;19975;-76
2023/07/08 13:31:31;;;;;;;;;;;;;;;;;;5069183;28;19946;-76
2023/07/08 13:33:57;;;;;;;;;;;;;;;;;;5064337;28;20416;-77
2023/07/08 13:36:23;;;;;;;;;;;;;;;;;;5058888;28;20304;-77
2023/07/08 13:38:49;;;;;;;;;;;;;;;;;;5073137;28;19924;-76
2023/07/08 13:41:15;;;;;;;;;;;;;;;;;;5056000;28;19924;-77
2023/07/08 13:43:41;;;;;;;;;;;;;;;;;;5072366;28;20317;-77
2023/07/08 13:46:07;;;;;;;;;;;;;;;;;;5072722;28;19924;-76
2023/07/08 13:48:33;;;;;;;;;;;;;;;;;;5069950;28;19924;-74
2023/07/08 13:50:59;;;;;;;;;;;;;;;;;;5071888;28;20019;-78
2023/07/08 13:53:25;;;;;;;;;;;;;;;;;;5065916;28;20437;-76
2023/07/08 13:55:51;;;;;;;;;;;;;;;;;;5058033;28;20023;-77
2023/07/08 13:58:17;;;;;;;;;;;;;;;;;;5071691;28;20384;-78
2023/07/08 14:00:43;;;;;;;;;;;;;;;;;;5091135;28;20046;-78
2023/07/08 14:03:09;;;;;;;;;;;;;;;;;;5069582;28;20433;-77
2023/07/08 14:05:35;;;;;;;;;;;;;;;;;;5091189;28;20368;-78
2023/07/08 14:08:01;;;;;;;;;;;;;;;;;;5091312;28;20399;-77
2023/07/08 14:10:27;;;;;;;;;;;;;;;;;;5091064;28;19924;-77
2023/07/08 14:12:53;;;;;;;;;;;;;;;;;;5074820;28;20106;-76
2023/07/08 14:15:19;;;;;;;;;;;;;;;;;;5054367;28;20327;-77
2023/07/08 14:17:45;;;;;;;;;;;;;;;;;;5070146;28;19974;-76
2023/07/08 14:20:11;;;;;;;;;;;;;;;;;;5071612;28;20384;-77
2023/07/08 14:22:37;;;;;;;;;;;;;;;;;;5074296;28;19920;-77
2023/07/08 14:25:03;;;;;;;;;;;;;;;;;;5064524;28;19967;-77
2023/07/08 14:27:29;;;;;;;;;;;;;;;;;;5090992;28;19920;-77
2023/07/08 14:29:55;;;;;;;;;;;;;;;;;;5090875;28;19924;-78
2023/07/08 14:32:21;;;;;;;;;;;;;;;;;;5073475;28;20268;-76
2023/07/08 14:34:47;;;;;;;;;;;;;;;;;;5065848;28;19985;-77
2023/07/08 14:37:13;;;;;;;;;;;;;;;;;;5070841;28;19928;-77
2023/07/08 14:39:39;;;;;;;;;;;;;;;;;;5069611;28;19928;-77
2023/07/08 14:42:05;;;;;;;;;;;;;;;;;;5054664;28;20411;-74
2023/07/08 14:44:31;;;;;;;;;;;;;;;;;;5070025;28;19923;-77
2023/07/08 14:46:58;;;;;;;;;;;;;;;;;;5074096;28;20376;-77
2023/07/08 14:49:24;;;;;;;;;;;;;;;;;;5073019;28;19920;-79
2023/07/08 14:51:50;;;;;;;;;;;;;;;;;;5074021;28;19945;-76
2023/07/08 14:54:16;;;;;;;;;;;;;;;;;;5075108;28;20526;-77
2023/07/08 14:56:42;;;;;;;;;;;;;;;;;;5069769;28;19924;-77
2023/07/08 14:59:08;;;;;;;;;;;;;;;;;;5070327;28;19929;-76
2023/07/08 15:01:34;;;;;;;;;;;;;;;;;;5070167;28;20280;-77
2023/07/08 15:04:00;;;;;;;;;;;;;;;;;;5084828;28;19919;-77
2023/07/08 15:06:27;;;;;;;;;;;;;;;;;;5090558;28;20417;-79
2023/07/08 15:08:53;;;;;;;;;;;;;;;;;;5089906;28;20299;-76
2023/07/08 15:11:19;;;;;;;;;;;;;;;;;;5090636;28;20011;-77
2023/07/08 15:13:45;;;;;;;;;;;;;;;;;;5072759;28;19924;-77
2023/07/08 15:16:11;;;;;;;;;;;;;;;;;;5090027;28;19930;-78
2023/07/08 15:18:37;;;;;;;;;;;;;;;;;;5070124;28;19950;-78
2023/07/08 15:21:04;;;;;;;;;;;;;;;;;;5064220;28;19928;-77
2023/07/08 15:23:30;;;;;;;;;;;;;;;;;;5080250;28;19924;-78
2023/07/08 15:25:56;;;;;;;;;;;;;;;;;;5053272;28;19978;-77
2023/07/08 15:28:24;;;;;;;;;;;;;;;;;;5085951;28;19927;-76
2023/07/08 15:30:50;;;;;;;;;;;;;;;;;;5089744;28;19920;-78
2023/07/08 15:33:16;;;;;;;;;;;;;;;;;;5072775;28;19927;-77
2023/07/08 15:35:43;;;;;;;;;;;;;;;;;;5090417;28;19920;-78
2023/07/08 15:38:09;;;;;;;;;;;;;;;;;;5080268;28;19966;-77
2023/07/08 15:40:35;;;;;;;;;;;;;;;;;;5089866;28;20315;-77
2023/07/08 15:43:01;;;;;;;;;;;;;;;;;;5073379;28;19920;-77
2023/07/08 15:45:27;;;;;;;;;;;;;;;;;;5080026;28;19920;-78
2023/07/08 15:47:53;;;;;;;;;;;;;;;;;;5071359;28;19985;-78
2023/07/08 15:50:19;;;;;;;;;;;;;;;;;;5070276;28;19966;-78
2023/07/08 15:52:45;;;;;;;;;;;;;;;;;;5072691;28;19927;-78
2023/07/08 15:55:11;;;;;;;;;;;;;;;;;;5073410;28;20010;-79
2023/07/08 15:57:37;;;;;;;;;;;;;;;;;;5089094;28;19919;-78
2023/07/08 16:00:04;;;;;;;;;;;;;;;;;;5078268;28;19924;-76
2023/07/08 16:02:30;;;;;;;;;;;;;;;;;;5084325;28;19921;-77
2023/07/08 16:04:56;;;;;;;;;;;;;;;;;;5065265;28;19967;-77
2023/07/08 16:07:22;;;;;;;;;;;;;;;;;;5060845;28;19967;-72
2023/07/08 16:09:48;;;;;;;;;;;;;;;;;;5075268;28;19927;-72
2023/07/08 16:12:14;;;;;;;;;;;;;;;;;;5089436;28;19931;-73
2023/07/08 16:14:39;;;;;;;;;;;;;;;;;;5088587;28;19919;-77
2023/07/08 16:17:05;;;;;;;;;;;;;;;;;;5088443;28;20372;-81
2023/07/08 16:19:32;;;;;;;;;;;;;;;;;;5087174;28;19969;-79
2023/07/08 16:21:58;;;;;;;;;;;;;;;;;;5065510;28;19936;-78
2023/07/08 16:24:24;;;;;;;;;;;;;;;;;;5074975;28;19920;-80
2023/07/08 16:26:50;;;;;;;;;;;;;;;;;;5076007;28;19945;-76
2023/07/08 16:29:16;;;;;;;;;;;;;;;;;;5089555;28;19942;-76
2023/07/08 16:31:42;;;;;;;;;;;;;;;;;;5089137;28;19924;-77
2023/07/08 16:34:08;;;;;;;;;;;;;;;;;;5058278;28;19925;-77
2023/07/08 16:36:34;;;;;;;;;;;;;;;;;;5073254;28;19920;-78